createdAt,value
2019-03-17T00:02:21.052Z,100.00
2019-03-17T00:04:51.278Z,100.00
2019-03-17T00:07:21.560Z,100.00
2019-03-17T00:09:51.870Z,100.00
2019-03-17T00:12:22.098Z,100.00
2019-03-17T00:15:04.243Z,100.00
2019-03-17T00:17:25.224Z,100.00
2019-03-17T00:19:56.313Z,100.00
2019-03-17T00:22:27.190Z,100.00
2019-03-17T00:25:08.549Z,100.00
2019-03-17T00:27:30.451Z,100.00
2019-03-17T00:30:00.672Z,100.00
2019-03-17T00:32:30.954Z,100.00
2019-03-17T00:35:01.790Z,100.00
2019-03-17T00:37:32.825Z,100.00
2019-03-17T00:40:03.205Z,100.00
2019-03-17T00:42:34.343Z,100.00
2019-03-17T00:45:05.156Z,100.00
2019-03-17T00:47:35.474Z,100.00
2019-03-17T00:50:06.098Z,100.00
2019-03-17T00:52:37.424Z,100.00
2019-03-17T00:55:07.746Z,100.00
2019-03-17T00:57:38.390Z,100.00
2019-03-17T01:00:10.235Z,100.00
2019-03-17T01:02:40.782Z,100.00
2019-03-17T01:05:11.415Z,100.00
2019-03-17T01:07:42.153Z,100.00
2019-03-17T01:10:12.408Z,100.00
2019-03-17T01:12:44.868Z,100.00
2019-03-17T01:15:14.635Z,100.00
2019-03-17T01:17:44.855Z,100.00
2019-03-17T01:20:15.632Z,100.00
2019-03-17T01:22:45.936Z,100.00
2019-03-17T01:25:17.323Z,100.00
2019-03-17T01:27:47.611Z,100.00
2019-03-17T01:30:17.904Z,100.00
2019-03-17T01:32:48.146Z,100.00
2019-03-17T01:35:18.883Z,100.00
2019-03-17T01:37:49.099Z,100.00
2019-03-17T01:40:20.467Z,100.00
2019-03-17T01:42:51.303Z,100.00
2019-03-17T01:45:21.473Z,100.00
2019-03-17T01:47:52.780Z,100.00
2019-03-17T01:50:23.311Z,100.00
2019-03-17T01:52:53.532Z,100.00
2019-03-17T01:55:25.830Z,100.00
2019-03-17T01:57:56.019Z,100.00
2019-03-17T02:00:26.276Z,100.00
2019-03-17T02:02:56.863Z,100.00
2019-03-17T02:05:27.045Z,100.00
2019-03-17T02:07:57.633Z,100.00
2019-03-17T02:10:28.266Z,100.00
2019-03-17T02:12:58.562Z,100.00
2019-03-17T02:15:28.840Z,100.00
2019-03-17T02:17:59.439Z,100.00
2019-03-17T02:20:30.382Z,100.00
2019-03-17T02:23:00.905Z,100.00
2019-03-17T02:25:31.843Z,100.00
2019-03-17T02:28:02.319Z,100.00
2019-03-17T02:30:32.521Z,100.00
2019-03-17T02:33:02.802Z,100.00
2019-03-17T02:35:39.241Z,100.00
2019-03-17T02:38:05.302Z,100.00
2019-03-17T02:40:36.683Z,100.00
2019-03-17T02:43:07.243Z,100.00
2019-03-17T02:45:38.396Z,100.00
2019-03-17T02:48:08.650Z,100.00
2019-03-17T02:50:38.907Z,100.00
2019-03-17T02:53:09.635Z,100.00
2019-03-17T02:55:40.558Z,100.00
2019-03-17T02:58:11.210Z,100.00
2019-03-17T03:00:42.018Z,100.00
2019-03-17T03:03:13.328Z,100.00
2019-03-17T03:05:54.592Z,100.00
2019-03-17T03:08:15.807Z,100.00
2019-03-17T03:10:46.029Z,100.00
2019-03-17T03:13:16.258Z,100.00
2019-03-17T03:15:46.475Z,100.00
2019-03-17T03:19:36.606Z,100.00
2019-03-17T03:22:06.803Z,100.00
2019-03-17T03:24:37.378Z,100.00
2019-03-17T03:27:07.944Z,100.00
2019-03-17T03:29:38.541Z,100.00
2019-03-17T03:32:09.036Z,100.00
2019-03-17T03:34:39.250Z,100.00
2019-03-17T03:37:09.784Z,100.00
2019-03-17T03:39:40.356Z,100.00
2019-03-17T03:42:11.292Z,100.00
2019-03-17T03:44:41.550Z,100.00
2019-03-17T03:47:11.767Z,100.00
2019-03-17T03:49:44.201Z,100.00
2019-03-17T03:52:14.459Z,100.00
2019-03-17T03:54:44.744Z,100.00
2019-03-17T03:57:15.045Z,100.00
2019-03-17T03:59:46.435Z,100.00
2019-03-17T04:02:17.023Z,100.00
2019-03-17T04:04:47.683Z,100.00
2019-03-17T04:07:18.428Z,100.00
2019-03-17T04:09:48.628Z,100.00
2019-03-17T04:12:18.915Z,100.00
2019-03-17T04:14:49.511Z,100.00
2019-03-17T04:17:20.228Z,100.00
2019-03-17T04:19:50.783Z,100.00
2019-03-17T04:22:21.398Z,100.00
2019-03-17T04:24:52.238Z,100.00
2019-03-17T04:27:22.413Z,100.00
2019-03-17T04:29:52.700Z,100.00
2019-03-17T04:32:22.929Z,100.00
2019-03-17T04:34:53.553Z,100.00
2019-03-17T04:37:24.131Z,100.00
2019-03-17T04:39:54.702Z,100.00
2019-03-17T04:42:25.420Z,100.00
2019-03-17T04:44:55.986Z,100.00
2019-03-17T04:47:26.216Z,100.00
2019-03-17T04:49:56.714Z,100.00
2019-03-17T04:52:28.364Z,100.00
2019-03-17T04:54:59.211Z,100.00
2019-03-17T04:57:29.461Z,100.00
2019-03-17T04:59:59.746Z,100.00
2019-03-17T05:02:31.106Z,100.00
2019-03-17T05:05:01.316Z,100.00
2019-03-17T05:07:31.573Z,100.00
2019-03-17T05:10:02.165Z,100.00
2019-03-17T05:12:32.431Z,100.00
2019-03-17T05:15:02.704Z,100.00
2019-03-17T05:17:34.023Z,100.00
2019-03-17T05:20:05.036Z,100.00
2019-03-17T05:22:35.651Z,100.00
2019-03-17T05:25:06.240Z,100.00
2019-03-17T05:27:36.478Z,100.00
2019-03-17T05:30:07.454Z,100.00
2019-03-17T05:32:37.757Z,100.00
2019-03-17T05:35:08.023Z,100.00
2019-03-17T05:37:38.402Z,100.00
2019-03-17T05:40:08.718Z,100.00
2019-03-17T05:42:40.806Z,100.00
2019-03-17T05:45:11.730Z,100.00
2019-03-17T05:47:41.951Z,100.00
2019-03-17T05:50:12.315Z,100.00
2019-03-17T05:52:42.611Z,100.00
2019-03-17T05:55:12.890Z,100.00
2019-03-17T05:57:43.455Z,100.00
2019-03-17T06:00:15.236Z,100.00
2019-03-17T06:02:46.169Z,100.00
2019-03-17T06:05:16.446Z,100.00
2019-03-17T06:07:46.639Z,100.00
2019-03-17T06:10:16.940Z,100.00
2019-03-17T06:12:47.262Z,100.00
2019-03-17T06:15:17.526Z,100.00
2019-03-17T06:17:48.128Z,100.00
2019-03-17T06:20:19.105Z,100.00
2019-03-17T06:22:49.364Z,100.00
2019-03-17T06:25:19.638Z,100.00
2019-03-17T06:27:49.903Z,100.00
2019-03-17T06:30:20.182Z,100.00
2019-03-17T06:32:50.387Z,100.00
2019-03-17T06:35:21.314Z,100.00
2019-03-17T06:37:51.839Z,100.00
2019-03-17T06:40:22.471Z,100.00
2019-03-17T06:42:53.020Z,100.00
2019-03-17T06:45:23.247Z,100.00
2019-03-17T06:47:53.531Z,100.00
2019-03-17T06:50:25.512Z,100.00
2019-03-17T06:52:55.722Z,100.00
2019-03-17T06:55:25.993Z,100.00
2019-03-17T06:57:56.267Z,100.00
2019-03-17T07:00:26.920Z,100.00
2019-03-17T07:02:57.166Z,100.00
2019-03-17T07:05:27.359Z,100.00
2019-03-17T07:07:57.567Z,100.00
2019-03-17T07:10:27.839Z,100.00
2019-03-17T07:12:58.436Z,100.00
2019-03-17T07:15:29.040Z,100.00
2019-03-17T07:17:59.286Z,100.00
2019-03-17T07:20:31.317Z,100.00
2019-03-17T07:23:01.980Z,100.00
2019-03-17T07:25:32.190Z,100.00
2019-03-17T07:28:02.411Z,100.00
2019-03-17T07:30:32.686Z,100.00
2019-03-17T07:33:03.292Z,100.00
2019-03-17T07:35:33.539Z,100.00
2019-03-17T07:38:03.817Z,100.00
2019-03-17T07:40:34.705Z,100.00
2019-03-17T07:43:06.428Z,100.00
2019-03-17T07:45:37.950Z,100.00
2019-03-17T07:48:08.207Z,100.00
2019-03-17T07:50:38.406Z,100.00
2019-03-17T07:53:08.627Z,100.00
2019-03-17T07:55:38.926Z,100.00
2019-03-17T07:58:09.619Z,100.00
2019-03-17T08:00:40.852Z,100.00
2019-03-17T08:03:11.075Z,100.00
2019-03-17T08:05:41.344Z,100.00
2019-03-17T08:08:11.926Z,100.00
2019-03-17T08:10:42.195Z,100.00
2019-03-17T08:13:12.884Z,100.00
2019-03-17T08:15:43.435Z,100.00
2019-03-17T08:18:14.087Z,100.00
2019-03-17T08:20:44.680Z,100.00
2019-03-17T08:23:15.197Z,100.00
2019-03-17T08:25:45.730Z,98.76
2019-03-17T08:28:16.375Z,91.37
2019-03-17T08:30:53.160Z,91.37
2019-03-17T08:33:18.933Z,84.98
2019-03-17T08:35:50.140Z,77.53
2019-03-17T08:38:22.336Z,75.12
2019-03-17T08:40:53.618Z,71.90
2019-03-17T08:43:24.464Z,71.85
2019-03-17T08:45:55.088Z,71.57
2019-03-17T08:48:25.301Z,66.98
2019-03-17T08:50:55.815Z,67.48
2019-03-17T08:53:26.398Z,67.64
2019-03-17T08:55:56.979Z,69.19
2019-03-17T08:58:28.291Z,68.93
2019-03-17T09:00:58.782Z,66.61
2019-03-17T09:03:28.993Z,66.61
2019-03-17T09:05:59.263Z,66.19
2019-03-17T09:08:34.770Z,68.32
2019-03-17T09:11:02.670Z,66.29
2019-03-17T09:13:33.009Z,63.24
2019-03-17T09:16:03.846Z,62.92
2019-03-17T09:18:34.677Z,60.63
2019-03-17T09:21:05.259Z,60.88
2019-03-17T09:23:36.110Z,60.25
2019-03-17T09:26:06.643Z,59.13
2019-03-17T09:28:37.364Z,59.02
2019-03-17T09:31:07.827Z,58.86
2019-03-17T09:33:38.217Z,58.78
2019-03-17T09:36:08.484Z,59.56
2019-03-17T09:38:47.269Z,56.13
2019-03-17T09:41:11.873Z,54.61
2019-03-17T09:43:42.188Z,55.37
2019-03-17T09:46:12.866Z,53.64
2019-03-17T09:48:43.542Z,53.86
2019-03-17T09:51:13.819Z,52.24
2019-03-17T09:53:44.177Z,49.92
2019-03-17T09:56:15.160Z,48.84
2019-03-17T09:58:45.839Z,46.14
2019-03-17T10:01:16.317Z,45.55
2019-03-17T10:03:46.786Z,45.04
2019-03-17T10:06:17.038Z,43.63
2019-03-17T10:08:59.410Z,43.22
2019-03-17T10:11:19.889Z,42.41
2019-03-17T10:13:51.199Z,41.75
2019-03-17T10:16:21.459Z,41.99
2019-03-17T10:18:52.073Z,42.45
2019-03-17T10:21:22.315Z,43.29
2019-03-17T10:23:52.591Z,44.44
2019-03-17T10:26:22.802Z,42.55
2019-03-17T10:28:53.367Z,42.26
2019-03-17T10:31:23.554Z,44.27
2019-03-17T10:33:54.408Z,45.68
2019-03-17T10:36:24.952Z,46.00
2019-03-17T10:38:55.748Z,46.61
2019-03-17T10:41:26.568Z,46.21
2019-03-17T10:43:57.271Z,46.93
2019-03-17T10:46:27.470Z,46.87
2019-03-17T10:48:58.619Z,42.77
2019-03-17T10:51:28.986Z,41.51
2019-03-17T10:53:59.230Z,42.09
2019-03-17T10:56:29.714Z,44.57
2019-03-17T10:59:00.325Z,44.97
2019-03-17T11:01:30.859Z,46.25
2019-03-17T11:04:01.138Z,46.07
2019-03-17T11:06:31.616Z,45.83
2019-03-17T11:09:02.251Z,43.96
2019-03-17T11:11:33.022Z,42.23
2019-03-17T11:14:04.466Z,39.50
2019-03-17T11:16:35.560Z,35.85
2019-03-17T11:19:06.170Z,35.93
2019-03-17T11:21:37.046Z,34.41
2019-03-17T11:24:07.940Z,34.70
2019-03-17T11:26:38.139Z,35.62
2019-03-17T11:29:08.350Z,33.14
2019-03-17T11:31:38.635Z,32.36
2019-03-17T11:34:08.900Z,31.10
2019-03-17T11:36:39.516Z,30.31
2019-03-17T11:39:10.192Z,32.67
2019-03-17T11:41:40.770Z,36.49
2019-03-17T11:44:11.016Z,39.25
2019-03-17T11:46:41.299Z,39.77
2019-03-17T11:49:12.592Z,40.00
2019-03-17T11:51:43.194Z,40.74
2019-03-17T11:54:13.831Z,41.07
2019-03-17T11:56:44.771Z,37.68
2019-03-17T11:59:15.366Z,36.87
2019-03-17T12:01:46.479Z,42.11
2019-03-17T12:04:17.271Z,46.08
2019-03-17T12:06:47.577Z,43.81
2019-03-17T12:09:28.627Z,42.34
2019-03-17T12:11:50.092Z,41.78
2019-03-17T12:14:20.652Z,40.22
2019-03-17T12:16:50.919Z,40.99
2019-03-17T12:19:21.579Z,41.98
2019-03-17T12:21:53.324Z,43.97
2019-03-17T12:24:24.280Z,44.30
2019-03-17T12:26:54.589Z,43.37
2019-03-17T12:29:25.076Z,41.56
2019-03-17T12:31:55.967Z,39.52
2019-03-17T12:34:28.465Z,40.96
2019-03-17T12:36:58.627Z,41.03
2019-03-17T12:39:28.926Z,39.37
2019-03-17T12:42:01.108Z,38.22
2019-03-17T12:44:31.310Z,38.22
2019-03-17T12:47:01.593Z,35.67
2019-03-17T12:49:32.377Z,39.81
2019-03-17T12:52:02.773Z,38.23
2019-03-17T12:54:33.083Z,38.24
2019-03-17T12:57:03.299Z,37.66
2019-03-17T12:59:34.139Z,38.39
2019-03-17T13:02:04.683Z,45.33
2019-03-17T13:04:35.784Z,47.29
2019-03-17T13:07:06.088Z,53.50
2019-03-17T13:09:36.571Z,56.30
2019-03-17T13:12:07.102Z,61.05
2019-03-17T13:14:37.387Z,63.56
2019-03-17T13:17:07.939Z,65.38
2019-03-17T13:19:38.592Z,67.47
2019-03-17T13:22:09.231Z,69.89
2019-03-17T13:24:40.128Z,72.81
2019-03-17T13:27:10.359Z,73.60
2019-03-17T13:29:40.532Z,78.35
2019-03-17T13:32:11.088Z,81.50
2019-03-17T13:34:41.288Z,81.26
2019-03-17T13:37:12.141Z,83.25
2019-03-17T13:39:43.026Z,84.56
2019-03-17T13:42:13.649Z,85.55
2019-03-17T13:44:43.915Z,85.73
2019-03-17T13:47:14.184Z,89.10
2019-03-17T13:49:44.740Z,92.98
2019-03-17T13:52:15.314Z,95.90
2019-03-17T13:54:45.797Z,100.00
2019-03-17T13:57:16.103Z,100.00
2019-03-17T13:59:47.165Z,100.00
2019-03-17T14:02:17.418Z,100.00
2019-03-17T14:04:47.688Z,100.00
2019-03-17T14:07:18.239Z,100.00
2019-03-17T14:09:48.836Z,100.00
2019-03-17T14:12:19.633Z,100.00
2019-03-17T14:14:50.791Z,100.00
2019-03-17T14:17:21.038Z,100.00
2019-03-17T14:19:51.386Z,100.00
2019-03-17T14:22:22.345Z,100.00
2019-03-17T14:24:52.875Z,100.00
2019-03-17T14:27:23.178Z,100.00
2019-03-17T14:29:53.824Z,100.00
2019-03-17T14:32:24.115Z,100.00
2019-03-17T14:34:54.712Z,100.00
2019-03-17T14:37:25.828Z,100.00
2019-03-17T14:39:56.765Z,100.00
2019-03-17T14:42:27.696Z,100.00
2019-03-17T14:44:58.008Z,100.00
2019-03-17T14:47:28.881Z,100.00
2019-03-17T14:49:59.496Z,100.00
2019-03-17T14:52:31.037Z,100.00
2019-03-17T14:55:01.673Z,100.00
2019-03-17T14:57:32.901Z,100.00
2019-03-17T15:00:03.458Z,100.00
2019-03-17T15:02:34.051Z,100.00
2019-03-17T15:05:04.498Z,100.00
2019-03-17T15:07:35.077Z,100.00
2019-03-17T15:10:06.344Z,100.00
2019-03-17T15:12:36.879Z,100.00
2019-03-17T15:15:08.529Z,100.00
2019-03-17T15:17:39.565Z,100.00
2019-03-17T15:20:11.841Z,100.00
2019-03-17T15:22:42.730Z,100.00
2019-03-17T15:25:13.585Z,100.00
2019-03-17T15:27:44.261Z,100.00
2019-03-17T15:30:19.967Z,100.00
2019-03-17T15:32:50.323Z,100.00
2019-03-17T15:35:21.023Z,100.00
2019-03-17T15:37:51.283Z,100.00
2019-03-17T15:40:21.892Z,100.00
2019-03-17T15:42:52.627Z,100.00
2019-03-17T15:45:22.924Z,100.00
2019-03-17T15:47:53.197Z,100.00
2019-03-17T15:50:23.989Z,100.00
2019-03-17T15:52:55.190Z,100.00
2019-03-17T15:55:25.468Z,100.00
2019-03-17T15:57:55.699Z,100.00
2019-03-17T16:00:26.961Z,100.00
2019-03-17T16:02:59.098Z,100.00
2019-03-17T16:05:29.753Z,100.00
2019-03-17T16:07:59.988Z,100.00
2019-03-17T16:10:30.271Z,100.00
2019-03-17T16:13:01.221Z,100.00
2019-03-17T16:15:31.911Z,100.00
2019-03-17T16:18:02.441Z,100.00
2019-03-17T16:20:34.635Z,100.00
2019-03-17T16:23:05.860Z,100.00
2019-03-17T16:25:36.218Z,100.00
2019-03-17T16:28:07.191Z,100.00
2019-03-17T16:30:37.487Z,100.00
2019-03-17T16:33:07.697Z,100.00
2019-03-17T16:35:39.057Z,100.00
2019-03-17T16:38:09.976Z,100.00
2019-03-17T16:40:41.704Z,100.00
2019-03-17T16:43:11.936Z,100.00
2019-03-17T16:45:43.114Z,100.00
2019-03-17T16:48:13.379Z,100.00
2019-03-17T16:50:44.376Z,100.00
2019-03-17T16:53:15.005Z,100.00
2019-03-17T16:55:45.682Z,100.00
2019-03-17T16:58:16.018Z,100.00
2019-03-17T17:00:46.246Z,100.00
2019-03-17T17:03:16.653Z,100.00
2019-03-17T17:05:46.906Z,100.00
2019-03-17T17:08:17.214Z,100.00
2019-03-17T17:10:50.167Z,100.00
2019-03-17T17:13:19.472Z,100.00
2019-03-17T17:15:49.731Z,100.00
2019-03-17T17:18:19.914Z,100.00
2019-03-17T17:20:50.509Z,100.00
2019-03-17T17:23:20.712Z,100.00
2019-03-17T17:25:51.360Z,100.00
2019-03-17T17:28:22.044Z,100.00
2019-03-17T17:30:52.645Z,100.00
2019-03-17T17:33:23.176Z,100.00
2019-03-17T17:35:53.522Z,100.00
2019-03-17T17:38:24.555Z,100.00
2019-03-17T17:40:54.955Z,100.00
2019-03-17T17:43:25.284Z,100.00
2019-03-17T17:45:55.830Z,100.00
2019-03-17T17:48:26.077Z,100.00
2019-03-17T17:50:56.355Z,100.00
2019-03-17T17:53:26.649Z,100.00
2019-03-17T17:55:57.830Z,100.00
2019-03-17T17:58:28.453Z,100.00
2019-03-17T18:00:58.998Z,100.00
2019-03-17T18:03:29.726Z,100.00
2019-03-17T18:06:00.464Z,100.00
2019-03-17T18:08:31.066Z,100.00
2019-03-17T18:11:02.698Z,100.00
2019-03-17T18:13:33.296Z,100.00
2019-03-17T18:16:07.807Z,100.00
2019-03-17T18:18:38.161Z,100.00
2019-03-17T18:21:08.347Z,100.00
2019-03-17T18:23:39.246Z,100.00
2019-03-17T18:26:09.821Z,100.00
2019-03-17T18:28:40.022Z,100.00
2019-03-17T18:31:10.360Z,100.00
2019-03-17T18:33:40.552Z,100.00
2019-03-17T18:36:11.184Z,100.00
2019-03-17T18:38:41.417Z,100.00
2019-03-17T18:41:11.638Z,100.00
2019-03-17T18:43:43.291Z,100.00
2019-03-17T18:46:14.019Z,100.00
2019-03-17T18:48:44.592Z,100.00
2019-03-17T18:51:15.218Z,100.00
2019-03-17T18:53:45.407Z,100.00
2019-03-17T18:56:15.670Z,100.00
2019-03-17T18:58:46.177Z,100.00
2019-03-17T19:01:16.561Z,100.00
2019-03-17T19:03:46.831Z,100.00
2019-03-17T19:06:17.651Z,100.00
2019-03-17T19:08:47.974Z,100.00
2019-03-17T19:11:18.294Z,100.00
2019-03-17T19:13:48.515Z,100.00
2019-03-17T19:16:19.011Z,100.00
2019-03-17T19:18:50.032Z,100.00
2019-03-17T19:21:20.619Z,100.00
2019-03-17T19:23:50.880Z,100.00
2019-03-17T19:26:21.140Z,100.00
2019-03-17T19:28:52.659Z,100.00
2019-03-17T19:31:22.914Z,100.00
2019-03-17T19:33:53.195Z,100.00
2019-03-17T19:36:23.710Z,100.00
2019-03-17T19:38:54.247Z,100.00
2019-03-17T19:41:25.405Z,100.00
2019-03-17T19:43:55.709Z,100.00
2019-03-17T19:46:26.976Z,100.00
2019-03-17T19:48:57.608Z,100.00
2019-03-17T19:51:28.240Z,100.00
2019-03-17T19:53:58.450Z,100.00
2019-03-17T19:56:28.656Z,100.00
2019-03-17T19:58:59.614Z,100.00
2019-03-17T20:01:30.869Z,100.00
2019-03-17T20:04:01.190Z,100.00
2019-03-17T20:06:31.831Z,100.00
2019-03-17T20:09:02.149Z,100.00
2019-03-17T20:11:33.529Z,100.00
2019-03-17T20:14:04.548Z,100.00
2019-03-17T20:16:35.152Z,100.00
2019-03-17T20:19:05.423Z,100.00
2019-03-17T20:21:35.897Z,100.00
2019-03-17T20:24:06.169Z,100.00
2019-03-17T20:26:36.854Z,100.00
2019-03-17T20:29:07.448Z,100.00
2019-03-17T20:31:37.663Z,100.00
2019-03-17T20:34:08.286Z,100.00
2019-03-17T20:36:38.799Z,100.00
2019-03-17T20:39:10.660Z,100.00
2019-03-17T20:41:41.701Z,100.00
2019-03-17T20:44:11.919Z,100.00
2019-03-17T20:46:42.191Z,100.00
2019-03-17T20:49:12.457Z,100.00
2019-03-17T20:51:42.733Z,100.00
2019-03-17T20:54:13.098Z,100.00
2019-03-17T20:56:43.386Z,100.00
2019-03-17T20:59:13.591Z,100.00
2019-03-17T21:01:43.785Z,100.00
2019-03-17T21:04:14.019Z,100.00
2019-03-17T21:06:44.263Z,100.00
2019-03-17T21:09:14.844Z,100.00
2019-03-17T21:11:45.134Z,100.00
2019-03-17T21:14:15.712Z,100.00
2019-03-17T21:16:47.011Z,100.00
2019-03-17T21:19:17.971Z,100.00
2019-03-17T21:21:48.500Z,100.00
2019-03-17T21:24:18.737Z,100.00
2019-03-17T21:26:49.796Z,100.00
2019-03-17T21:29:20.115Z,100.00
2019-03-17T21:31:50.456Z,100.00
2019-03-17T21:34:20.856Z,100.00
2019-03-17T21:36:51.510Z,100.00
2019-03-17T21:39:22.177Z,100.00
2019-03-17T21:41:52.987Z,100.00
2019-03-17T21:44:23.352Z,100.00
2019-03-17T21:46:53.692Z,100.00
2019-03-17T21:49:23.900Z,100.00
2019-03-17T21:51:54.844Z,100.00
2019-03-17T21:54:25.335Z,100.00
2019-03-17T21:56:55.977Z,100.00
2019-03-17T21:59:26.896Z,100.00
2019-03-17T22:01:57.613Z,100.00
2019-03-17T22:04:28.255Z,100.00
2019-03-17T22:06:59.910Z,100.00
2019-03-17T22:09:30.249Z,100.00
2019-03-17T22:12:00.608Z,100.00
2019-03-17T22:14:31.218Z,100.00
2019-03-17T22:17:02.152Z,100.00
2019-03-17T22:19:32.445Z,100.00
2019-03-17T22:22:03.059Z,100.00
2019-03-17T22:24:33.348Z,100.00
2019-03-17T22:27:03.566Z,100.00
2019-03-17T22:29:34.501Z,100.00
2019-03-17T22:32:04.738Z,100.00
2019-03-17T22:34:35.286Z,100.00
2019-03-17T22:37:05.475Z,100.00
2019-03-17T22:39:35.696Z,100.00
2019-03-17T22:42:07.324Z,100.00
2019-03-17T22:44:37.700Z,100.00
2019-03-17T22:47:08.254Z,100.00
2019-03-17T22:49:38.534Z,100.00
2019-03-17T22:52:08.754Z,100.00
2019-03-17T22:54:39.029Z,100.00
2019-03-17T22:57:09.311Z,100.00
2019-03-17T22:59:40.432Z,100.00
2019-03-17T23:02:11.055Z,100.00
2019-03-17T23:04:41.458Z,100.00
2019-03-17T23:07:11.723Z,100.00
2019-03-17T23:09:42.296Z,100.00
2019-03-17T23:12:12.484Z,100.00
2019-03-17T23:14:42.751Z,100.00
2019-03-17T23:17:13.025Z,100.00
2019-03-17T23:19:43.620Z,100.00
2019-03-17T23:22:13.877Z,100.00
2019-03-17T23:24:44.383Z,100.00
2019-03-17T23:27:14.654Z,100.00
2019-03-17T23:29:44.890Z,100.00
2019-03-17T23:32:15.182Z,100.00
2019-03-17T23:34:45.482Z,100.00
2019-03-17T23:37:16.232Z,100.00
2019-03-17T23:39:46.520Z,100.00
2019-03-17T23:42:17.407Z,100.00
2019-03-17T23:44:49.215Z,100.00
2019-03-17T23:47:19.690Z,100.00
2019-03-17T23:49:49.990Z,100.00
2019-03-17T23:52:20.279Z,100.00
2019-03-17T23:54:50.477Z,100.00
2019-03-17T23:57:20.714Z,100.00
2019-03-17T23:59:53.504Z,100.00
